Date,TemperatureHighF,TemperatureAvgF,TemperatureLowF,DewpointHighF,DewpointAvgF,DewpointLowF,HumidityHigh,HumidityAvg,HumidityLow,PressureMaxIn,PressureMinIn,WindSpeedMaxMPH,WindSpeedAvgMPH,GustSpeedMaxMPH,PrecipitationSumIn
2013-1-1,20,14,8,16,9,4,86,81,71,30.29,30.14,13,7,17,0.00
2013-1-2,31,15,6,25,10,2,89,83,74,30.24,30.11,16,7,21,0.00
2013-1-3,29,23,13,26,19,9,89,84,73,30.35,30.21,22,12,24,0.00
2013-1-4,33,22,10,28,19,7,91,87,78,30.33,30.24,16,9,23,0.00
2013-1-5,36,29,18,35,27,17,98,93,85,30.26,29.99,20,10,23,0.01
2013-1-6,36,24,17,34,21,15,93,89,84,30.34,29.99,22,12,29,0.01
2013-1-7,39,28,16,32,24,14,94,87,72,30.33,30.11,21,10,24,0.00
2013-1-8,43,34,26,37,31,24,94,87,77,30.14,30.03,17,9,18,0.00
2013-1-9,46,38,31,37,33,28,92,82,70,30.51,30.07,18,8,20,0.00
2013-1-10,40,36,30,39,32,26,99,87,70,30.50,29.83,20,8,23,0.71
2013-1-11,53,47,39,51,46,39,100,97,91,29.83,29.68,20,10,27,1.00
2013-1-12,52,37,23,49,34,22,95,88,80,30.02,29.71,26,14,32,0.01
2013-1-13,23,17,9,22,13,6,95,86,81,30.29,29.92,21,12,25,0.00
2013-1-14,25,15,6,15,10,4,91,82,63,30.48,30.28,11,4,13,0.00
2013-1-15,29,20,13,20,14,9,89,76,66,30.45,30.16,8,3,10,0.00
2013-1-16,36,26,12,33,21,9,87,80,66,30.16,29.90,19,9,27,0.00
2013-1-17,36,28,21,34,23,17,93,80,62,30.44,30.11,21,10,24,0.00
2013-1-18,46,34,21,37,28,17,91,79,70,30.44,29.98,27,12,33,0.00
2013-1-19,50,41,26,41,34,15,84,77,63,30.09,29.81,39,15,40,0.00
2013-1-20,25,17,13,15,10,7,85,75,61,30.33,30.09,37,16,39,0.00
2013-1-21,13,8,4,10,2,-4,86,74,56,30.34,30.22,32,17,35,0.00
2013-1-22,14,8,0,4,0,-5,84,70,58,30.42,30.32,17,10,20,0.00
2013-1-23,31,19,12,18,10,4,80,67,55,30.38,30.14,25,10,32,0.00
2013-1-24,22,15,6,12,5,-1,74,65,49,30.63,30.30,20,9,30,0.00
2013-1-25,37,26,17,23,17,10,86,69,53,30.32,30.02,22,10,29,0.00
2013-1-26,31,21,9,18,12,6,87,70,51,30.41,30.23,11,6,16,0.00
2013-1-27,39,32,27,39,28,19,99,86,70,30.36,29.88,18,7,24,0.34
2013-1-28,54,46,39,54,46,39,100,99,98,29.98,29.76,20,9,23,0.12
2013-1-29,61,54,40,60,54,40,100,98,94,29.76,29.44,26,11,32,0.94
2013-1-30,40,30,18,40,29,15,99,95,86,29.75,29.28,33,18,40,0.66
2013-1-31,14,10,3,10,5,-2,86,81,77,30.27,29.88,29,23,37,0.01